createdAt,value
2019-04-20T00:00:44.100Z,9.53
2019-04-20T00:03:08.133Z,10.10
2019-04-20T00:05:35.435Z,11.03
2019-04-20T00:08:09.892Z,9.83
2019-04-20T00:10:43.336Z,9.87
2019-04-20T00:13:13.807Z,9.93
2019-04-20T00:15:30.707Z,10.80
2019-04-20T00:18:01.838Z,10.97
2019-04-20T00:20:32.031Z,11.20
2019-04-20T00:23:19.735Z,10.03
2019-04-20T00:26:13.166Z,11.90
2019-04-20T00:28:51.091Z,10.97
2019-04-20T00:31:20.855Z,10.30
2019-04-20T00:33:42.267Z,9.93
2019-04-20T00:36:01.129Z,10.53
2019-04-20T00:38:36.182Z,10.73
2019-04-20T00:41:02.749Z,10.10
2019-04-20T00:43:32.319Z,10.43
2019-04-20T00:46:04.918Z,10.50
2019-04-20T00:48:40.092Z,11.63
2019-04-20T00:51:16.840Z,10.17
2019-04-20T00:53:31.415Z,10.37
2019-04-20T00:55:53.152Z,9.93
2019-04-20T00:58:29.957Z,9.93
2019-04-20T01:01:17.007Z,9.50
2019-04-20T01:03:33.990Z,9.97
2019-04-20T01:06:19.320Z,11.33
2019-04-20T01:08:34.019Z,9.93
2019-04-20T01:11:02.715Z,9.17
2019-04-20T01:13:31.757Z,10.80
2019-04-20T01:16:06.369Z,8.83
2019-04-20T01:18:28.511Z,7.70
2019-04-20T01:20:58.091Z,10.70
2019-04-20T01:23:34.597Z,10.90
2019-04-20T01:26:00.243Z,10.50
2019-04-20T01:28:37.486Z,9.87
2019-04-20T01:31:06.464Z,10.40
2019-04-20T01:33:31.818Z,10.43
2019-04-20T01:36:02.812Z,10.80
2019-04-20T01:38:34.691Z,9.57
2019-04-20T01:40:50.589Z,8.77
2019-04-20T01:43:18.427Z,9.20
2019-04-20T01:45:47.322Z,10.17
2019-04-20T01:48:22.043Z,9.53
2019-04-20T01:50:55.949Z,10.90
2019-04-20T01:53:29.215Z,9.33
2019-04-20T01:56:01.453Z,9.37
2019-04-20T01:58:39.806Z,8.17
2019-04-20T02:01:21.001Z,9.33
2019-04-20T02:03:56.873Z,8.17
2019-04-20T02:06:26.775Z,9.50
2019-04-20T02:09:00.308Z,9.23
2019-04-20T02:11:30.129Z,10.20
2019-04-20T02:13:56.611Z,9.27
2019-04-20T02:16:28.930Z,8.53
2019-04-20T02:19:09.264Z,7.50
2019-04-20T02:21:37.917Z,9.43
2019-04-20T02:23:55.561Z,9.10
2019-04-20T02:26:19.954Z,9.43
2019-04-20T02:29:13.450Z,8.27
2019-04-20T02:32:05.048Z,7.33
2019-04-20T02:34:32.750Z,7.90
2019-04-20T02:39:44.454Z,8.07
2019-04-20T02:42:19.768Z,9.03
2019-04-20T02:47:07.912Z,7.47
2019-04-20T02:49:35.396Z,7.60
2019-04-20T02:54:26.500Z,7.50
2019-04-20T02:59:56.294Z,7.83
2019-04-20T03:01:52.159Z,7.43
2019-04-20T03:04:04.979Z,7.47
2019-04-20T03:06:39.999Z,6.97
2019-04-20T03:09:20.147Z,7.87
2019-04-20T03:11:59.349Z,7.27
2019-04-20T03:14:16.362Z,6.97
2019-04-20T03:16:43.722Z,7.67
2019-04-20T03:19:14.116Z,7.83
2019-04-20T03:21:51.413Z,8.30
2019-04-20T03:24:20.449Z,7.60
2019-04-20T03:26:40.307Z,6.77
2019-04-20T03:29:40.811Z,6.90
2019-04-20T03:37:28.014Z,6.23
2019-04-20T03:39:40.546Z,7.00
2019-04-20T03:41:58.415Z,7.07
2019-04-20T03:44:27.798Z,7.50
2019-04-20T03:46:59.682Z,8.07
2019-04-20T03:49:48.307Z,7.93
2019-04-20T03:52:28.799Z,7.60
2019-04-20T03:55:19.995Z,6.83
2019-04-20T03:58:17.155Z,7.57
2019-04-20T04:00:45.902Z,8.17
2019-04-20T04:03:34.942Z,8.00
2019-04-20T04:05:55.968Z,7.60
2019-04-20T04:08:21.207Z,7.50
2019-04-20T04:11:01.455Z,7.43
2019-04-20T04:13:12.883Z,7.67
2019-04-20T04:15:48.763Z,8.70
2019-04-20T04:18:19.689Z,8.57
2019-04-20T04:20:50.054Z,7.83
2019-04-20T04:23:29.615Z,8.33
2019-04-20T04:26:00.873Z,7.43
2019-04-20T04:28:28.520Z,8.93
2019-04-20T04:31:04.152Z,8.37
2019-04-20T04:35:56.590Z,8.63
2019-04-20T04:38:35.939Z,7.80
2019-04-20T04:41:08.473Z,8.70
2019-04-20T04:43:25.778Z,8.37
2019-04-20T04:45:38.630Z,7.67
2019-04-20T04:48:13.082Z,7.83
2019-04-20T04:50:44.588Z,8.27
2019-04-20T04:53:11.964Z,8.30
2019-04-20T04:55:43.934Z,8.50
2019-04-20T04:58:04.374Z,8.60
2019-04-20T05:00:34.190Z,7.80
2019-04-20T05:03:23.303Z,6.73
2019-04-20T05:06:13.341Z,8.93
2019-04-20T05:08:30.744Z,8.27
2019-04-20T05:10:52.052Z,7.70
2019-04-20T05:13:19.938Z,8.53
2019-04-20T05:16:00.397Z,8.10
2019-04-20T05:18:43.502Z,8.00
2019-04-20T05:21:11.907Z,8.37
2019-04-20T05:23:44.613Z,8.00
2019-04-20T05:26:30.066Z,9.00
2019-04-20T05:28:52.753Z,8.50
2019-04-20T05:31:13.278Z,8.03
2019-04-20T05:34:04.170Z,7.87
2019-04-20T05:36:28.204Z,8.87
2019-04-20T05:39:05.142Z,9.07
2019-04-20T05:41:26.513Z,8.37
2019-04-20T05:43:59.724Z,8.63
2019-04-20T05:46:32.351Z,9.10
2019-04-20T05:49:03.149Z,8.03
2019-04-20T05:51:36.447Z,8.20
2019-04-20T05:54:05.636Z,8.40
2019-04-20T05:56:35.869Z,8.43
2019-04-20T05:58:59.596Z,8.13
2019-04-20T06:01:34.402Z,8.47
2019-04-20T06:03:59.397Z,8.50
2019-04-20T06:06:33.181Z,8.43
2019-04-20T06:09:08.778Z,8.43
2019-04-20T06:11:26.680Z,8.23
2019-04-20T06:14:07.112Z,7.87
2019-04-20T06:17:17.039Z,7.50
2019-04-20T06:19:39.468Z,8.33
2019-04-20T06:22:35.211Z,7.27
2019-04-20T06:25:31.618Z,8.00
2019-04-20T06:27:46.738Z,7.93
2019-04-20T06:30:05.949Z,7.53
2019-04-20T06:33:24.257Z,8.13
2019-04-20T06:36:06.028Z,6.97
2019-04-20T06:38:40.300Z,8.10
2019-04-20T06:40:59.408Z,8.10
2019-04-20T06:43:13.207Z,7.97
2019-04-20T06:45:51.322Z,7.27
2019-04-20T06:48:20.452Z,7.33
2019-04-20T06:50:38.486Z,7.43
2019-04-20T06:53:31.899Z,7.60
2019-04-20T06:55:59.096Z,7.93
2019-04-20T06:58:42.018Z,7.77
2019-04-20T07:00:56.364Z,7.67
2019-04-20T07:03:37.321Z,7.80
2019-04-20T07:06:06.344Z,8.13
2019-04-20T07:08:45.104Z,7.67
2019-04-20T07:10:58.033Z,7.73
2019-04-20T07:13:15.367Z,7.10
2019-04-20T07:15:54.458Z,7.67
2019-04-20T07:18:30.001Z,7.70
2019-04-20T07:20:59.287Z,7.27
2019-04-20T07:23:31.257Z,6.73
2019-04-20T07:26:02.142Z,6.80
2019-04-20T07:28:32.731Z,7.47
2019-04-20T07:30:56.918Z,7.67
2019-04-20T07:33:32.516Z,7.27
2019-04-20T07:35:56.300Z,7.30
2019-04-20T07:40:56.008Z,7.70
2019-04-20T07:43:26.876Z,7.57
2019-04-20T07:45:51.626Z,7.40
2019-04-20T07:48:21.192Z,7.93
2019-04-20T07:50:45.004Z,7.20
2019-04-20T07:53:16.704Z,7.33
2019-04-20T07:55:54.208Z,7.17
2019-04-20T07:58:10.803Z,7.30
2019-04-20T08:03:33.658Z,7.07
2019-04-20T08:06:11.605Z,7.47
2019-04-20T08:08:50.456Z,6.80
2019-04-20T08:11:23.443Z,7.43
2019-04-20T08:13:51.298Z,7.20
2019-04-20T08:16:23.139Z,7.03
2019-04-20T08:18:55.473Z,7.10
2019-04-20T08:21:25.667Z,7.03
2019-04-20T08:23:48.942Z,7.20
2019-04-20T08:26:09.076Z,7.33
2019-04-20T08:28:44.692Z,7.80
2019-04-20T08:31:40.670Z,7.13
2019-04-20T08:34:26.495Z,6.80
2019-04-20T08:36:51.487Z,7.17
2019-04-20T08:39:35.784Z,6.90
2019-04-20T08:41:53.586Z,6.10
2019-04-20T08:44:42.661Z,6.70
2019-04-20T08:47:01.827Z,6.83
2019-04-20T08:49:26.352Z,7.00
2019-04-20T08:51:55.737Z,7.03
2019-04-20T08:54:12.493Z,6.60
2019-04-20T08:56:33.748Z,6.53
2019-04-20T08:58:53.305Z,6.43
2019-04-20T09:01:25.755Z,5.67
2019-04-20T09:03:58.963Z,6.03
2019-04-20T09:06:33.293Z,6.17
2019-04-20T09:09:03.683Z,5.90
2019-04-20T09:11:41.879Z,6.20
2019-04-20T09:13:51.986Z,6.60
2019-04-20T09:16:19.939Z,6.60
2019-04-20T09:18:53.198Z,6.63
2019-04-20T09:21:24.306Z,6.50
2019-04-20T09:24:11.804Z,6.33
2019-04-20T09:26:32.773Z,6.87
2019-04-20T09:28:59.197Z,6.57
2019-04-20T09:31:52.127Z,6.90
2019-04-20T09:34:42.666Z,7.17
2019-04-20T09:37:25.973Z,6.23
2019-04-20T09:40:06.069Z,7.00
2019-04-20T09:42:16.237Z,7.43
2019-04-20T09:44:47.784Z,6.25
2019-04-20T09:47:14.010Z,7.50
2019-04-20T09:49:51.916Z,8.17
2019-04-20T09:52:20.718Z,7.77
2019-04-20T09:54:58.025Z,7.30
2019-04-20T09:57:32.249Z,8.67
2019-04-20T09:59:59.877Z,7.93
2019-04-20T10:02:17.867Z,7.87
2019-04-20T10:04:39.695Z,8.00
2019-04-20T10:07:12.922Z,7.67
2019-04-20T10:09:39.853Z,8.43
2019-04-20T10:12:07.906Z,8.57
2019-04-20T10:14:36.127Z,7.20
2019-04-20T10:17:03.582Z,7.37
2019-04-20T10:19:34.021Z,7.27
2019-04-20T10:22:00.376Z,8.20
2019-04-20T10:24:28.513Z,8.27
2019-04-20T10:26:56.592Z,7.80
2019-04-20T10:29:23.922Z,8.30
2019-04-20T10:31:55.600Z,8.53
2019-04-20T10:34:23.693Z,8.93
2019-04-20T10:37:09.427Z,9.13
2019-04-20T10:39:40.554Z,8.57
2019-04-20T10:42:08.186Z,8.90
2019-04-20T10:44:36.702Z,9.57
2019-04-20T10:47:05.010Z,9.70
2019-04-20T10:49:33.278Z,9.17
2019-04-20T10:52:01.708Z,9.03
2019-04-20T10:54:30.278Z,9.50
2019-04-20T10:56:57.761Z,9.77
2019-04-20T10:59:27.750Z,9.27
2019-04-20T11:01:55.921Z,8.67
2019-04-20T11:04:23.283Z,9.07
2019-04-20T11:06:50.643Z,9.35
2019-04-20T11:09:18.472Z,9.60
2019-04-20T11:11:46.180Z,9.87
2019-04-20T11:14:22.818Z,8.90
2019-04-20T11:16:42.758Z,8.27
2019-04-20T11:19:11.521Z,13.87
2019-04-20T11:21:38.963Z,8.15
2019-04-20T11:24:06.331Z,7.30
2019-04-20T11:26:36.510Z,7.55
2019-04-20T11:29:04.207Z,7.37
2019-04-20T11:31:38.040Z,8.30
2019-04-20T11:34:01.329Z,7.47
2019-04-20T11:36:28.783Z,8.53
2019-04-20T11:38:56.720Z,10.70
2019-04-20T11:41:27.675Z,9.00
2019-04-20T11:43:53.789Z,9.10
2019-04-20T11:46:22.730Z,9.47
2019-04-20T11:48:50.076Z,9.00
2019-04-20T11:51:18.982Z,10.43
2019-04-20T11:53:46.536Z,10.98
2019-04-20T11:56:20.219Z,10.10
2019-04-20T11:58:43.038Z,10.27
2019-04-20T12:01:39.252Z,9.75
2019-04-20T12:04:02.948Z,10.03
2019-04-20T12:06:28.790Z,9.95
2019-04-20T12:08:57.036Z,9.35
2019-04-20T12:11:36.111Z,9.90
2019-04-20T12:13:54.574Z,9.40
2019-04-20T12:16:21.850Z,10.03
2019-04-20T12:18:50.213Z,11.03
2019-04-20T12:21:18.938Z,10.38
2019-04-20T12:23:46.524Z,10.97
2019-04-20T12:26:14.839Z,10.23
2019-04-20T12:28:43.457Z,11.40
2019-04-20T12:31:15.369Z,13.00
2019-04-20T12:33:40.275Z,12.33
2019-04-20T12:36:10.245Z,13.22
2019-04-20T12:38:39.042Z,12.47
2019-04-20T12:41:08.373Z,12.80
2019-04-20T12:43:35.997Z,12.20
2019-04-20T12:46:03.648Z,13.67
2019-04-20T12:48:31.472Z,13.07
2019-04-20T12:50:59.477Z,13.37
2019-04-20T12:53:26.897Z,12.25
2019-04-20T12:55:54.748Z,12.97
2019-04-20T12:58:22.836Z,11.40
2019-04-20T13:00:52.278Z,11.97
2019-04-20T13:03:19.792Z,12.45
2019-04-20T13:05:47.870Z,13.57
2019-04-20T13:08:23.255Z,13.75
2019-04-20T13:10:50.704Z,12.63
2019-04-20T13:13:28.139Z,12.17
2019-04-20T13:16:08.216Z,11.70
2019-04-20T13:18:43.362Z,11.47
2019-04-20T13:21:11.165Z,10.10
2019-04-20T13:23:38.521Z,10.05
2019-04-20T13:26:08.757Z,9.60
2019-04-20T13:28:35.041Z,10.13
2019-04-20T13:31:03.856Z,9.93
2019-04-20T13:33:31.531Z,9.73
2019-04-20T13:35:59.012Z,10.97
2019-04-20T13:38:26.423Z,9.93
2019-04-20T13:40:55.732Z,9.43
2019-04-20T13:43:23.804Z,10.57
2019-04-20T13:45:51.162Z,10.87
2019-04-20T13:48:19.254Z,11.00
2019-04-20T13:50:46.637Z,10.33
2019-04-20T13:53:14.956Z,10.87
2019-04-20T13:55:43.584Z,9.97
2019-04-20T13:58:31.580Z,9.50
2019-04-20T14:01:34.724Z,9.70
2019-04-20T14:04:16.901Z,9.77
2019-04-20T14:06:45.653Z,10.20
2019-04-20T14:09:13.045Z,10.70
2019-04-20T14:11:41.404Z,10.80
2019-04-20T14:14:09.090Z,11.37
2019-04-20T14:16:45.217Z,10.77
2019-04-20T14:19:14.288Z,11.00
2019-04-20T14:21:41.813Z,10.83
2019-04-20T14:24:09.264Z,10.67
2019-04-20T14:26:40.314Z,9.93
2019-04-20T14:29:07.163Z,10.20
2019-04-20T14:31:35.193Z,9.80
2019-04-20T14:34:02.726Z,9.87
2019-04-20T14:36:30.796Z,10.50
2019-04-20T14:38:58.357Z,10.30
2019-04-20T14:41:28.440Z,9.47
2019-04-20T14:43:57.198Z,9.53
2019-04-20T14:46:27.917Z,9.93
2019-04-20T14:48:56.581Z,9.60
2019-04-20T14:51:26.046Z,9.73
2019-04-20T14:53:53.822Z,9.63
2019-04-20T14:56:21.164Z,10.15
2019-04-20T14:58:55.664Z,8.80
2019-04-20T15:01:28.383Z,9.00
2019-04-20T15:04:02.838Z,9.53
2019-04-20T15:06:25.615Z,8.80
2019-04-20T15:08:52.844Z,9.58
2019-04-20T15:11:20.921Z,9.63
2019-04-20T15:13:48.915Z,9.43
2019-04-20T15:16:17.017Z,8.13
2019-04-20T15:19:07.561Z,9.13
2019-04-20T15:21:35.601Z,8.50
2019-04-20T15:24:05.942Z,8.40
2019-04-20T15:26:34.260Z,8.20
2019-04-20T15:29:02.153Z,9.00
2019-04-20T15:31:30.114Z,8.67
2019-04-20T15:33:57.592Z,8.27
2019-04-20T15:36:26.278Z,8.57
2019-04-20T15:38:53.614Z,8.27
2019-04-20T15:41:20.956Z,8.63
2019-04-20T15:43:49.125Z,8.35
2019-04-20T15:46:17.237Z,8.40
2019-04-20T15:48:46.060Z,9.07
2019-04-20T15:51:14.153Z,7.77
2019-04-20T15:53:41.794Z,9.47
2019-04-20T15:56:11.591Z,8.70
2019-04-20T15:58:38.733Z,9.13
2019-04-20T16:01:08.304Z,8.75
2019-04-20T16:03:43.354Z,8.53
2019-04-20T16:06:11.539Z,8.13
2019-04-20T16:08:39.625Z,9.43
2019-04-20T16:11:07.158Z,8.40
2019-04-20T16:13:39.592Z,8.70
2019-04-20T16:16:05.827Z,8.03
2019-04-20T16:18:34.828Z,8.60
2019-04-20T16:21:07.973Z,7.97
2019-04-20T16:23:40.773Z,8.95
2019-04-20T16:26:21.809Z,9.13
2019-04-20T16:28:50.120Z,9.40
2019-04-20T16:31:18.363Z,9.53
2019-04-20T16:33:46.469Z,8.83
2019-04-20T16:36:14.551Z,8.83
2019-04-20T16:38:41.910Z,9.30
2019-04-20T16:41:10.441Z,9.23
2019-04-20T16:43:41.474Z,9.13
2019-04-20T16:46:06.980Z,9.53
2019-04-20T16:48:34.251Z,9.43
2019-04-20T16:51:02.925Z,9.50
2019-04-20T16:53:30.947Z,9.10
2019-04-20T16:55:58.959Z,9.60
2019-04-20T16:58:26.434Z,9.67
2019-04-20T17:00:53.898Z,9.67
2019-04-20T17:03:24.221Z,9.67
2019-04-20T17:05:51.420Z,9.80
2019-04-20T17:08:18.938Z,10.20
2019-04-20T17:10:46.628Z,10.43
2019-04-20T17:13:13.985Z,9.53
2019-04-20T17:15:41.517Z,10.10
2019-04-20T17:18:09.640Z,9.33
2019-04-20T17:20:37.036Z,9.07
2019-04-20T17:23:07.021Z,8.43
2019-04-20T17:25:34.345Z,8.70
2019-04-20T17:28:20.723Z,9.73
2019-04-20T17:31:03.068Z,8.67
2019-04-20T17:34:02.603Z,8.53
2019-04-20T17:36:24.944Z,9.53
2019-04-20T17:38:54.159Z,9.53
2019-04-20T17:41:43.255Z,10.40
2019-04-20T17:44:07.240Z,10.43
2019-04-20T17:46:27.331Z,9.87
2019-04-20T17:49:03.205Z,9.20
2019-04-20T17:51:34.531Z,9.17
2019-04-20T17:54:06.839Z,9.03
2019-04-20T17:56:38.431Z,9.03
2019-04-20T17:59:06.177Z,9.50
2019-04-20T18:02:11.940Z,8.57
2019-04-20T18:05:14.225Z,8.50
2019-04-20T18:07:41.256Z,8.97
2019-04-20T18:10:09.167Z,8.90
2019-04-20T18:12:26.836Z,10.07
2019-04-20T18:15:00.813Z,8.73
2019-04-20T18:18:08.405Z,9.40
2019-04-20T18:20:52.597Z,10.80
2019-04-20T18:23:25.502Z,10.87
2019-04-20T18:26:21.253Z,10.37
2019-04-20T18:28:32.314Z,11.57
2019-04-20T18:30:59.263Z,11.67
2019-04-20T18:33:29.908Z,9.80
2019-04-20T18:35:54.053Z,10.77
2019-04-20T18:38:21.994Z,11.77
2019-04-20T18:41:00.415Z,11.33
2019-04-20T18:43:23.941Z,11.07
2019-04-20T18:46:10.705Z,12.57
2019-04-20T18:48:43.926Z,11.17
2019-04-20T18:50:50.358Z,11.50
2019-04-20T18:53:28.373Z,11.27
2019-04-20T18:55:55.474Z,11.73
2019-04-20T18:58:19.164Z,11.10
2019-04-20T19:00:51.731Z,12.37
2019-04-20T19:03:27.012Z,12.20
2019-04-20T19:05:47.487Z,12.40
2019-04-20T19:08:16.287Z,12.03
2019-04-20T19:10:52.268Z,12.17
2019-04-20T19:13:44.643Z,11.83
2019-04-20T19:16:32.658Z,11.37
2019-04-20T19:19:20.164Z,11.60
2019-04-20T19:21:37.376Z,12.23
2019-04-20T19:24:10.978Z,11.80
2019-04-20T19:26:34.342Z,12.83
2019-04-20T19:29:13.393Z,12.67
2019-04-20T19:31:45.389Z,13.20
2019-04-20T19:34:19.042Z,12.30
2019-04-20T19:36:36.936Z,12.77
2019-04-20T19:39:17.253Z,11.33
2019-04-20T19:41:39.169Z,13.50
2019-04-20T19:44:10.309Z,14.77
2019-04-20T19:49:07.894Z,14.27
2019-04-20T19:51:49.265Z,15.00
2019-04-20T19:54:17.918Z,13.60
2019-04-20T19:56:41.425Z,14.77
2019-04-20T19:59:09.231Z,14.93
2019-04-20T20:01:23.903Z,13.27
2019-04-20T20:03:57.510Z,13.33
2019-04-20T20:06:29.098Z,14.63
2019-04-20T20:08:55.758Z,17.00
2019-04-20T20:11:29.488Z,15.17
2019-04-20T20:13:53.091Z,18.00
2019-04-20T20:16:27.192Z,16.83
2019-04-20T20:18:58.878Z,16.97
2019-04-20T20:21:27.269Z,15.80
2019-04-20T20:23:47.944Z,15.63
2019-04-20T20:26:23.106Z,16.53
2019-04-20T20:28:51.814Z,15.87
2019-04-20T20:31:23.306Z,16.40
2019-04-20T20:33:58.107Z,14.90
2019-04-20T20:36:19.359Z,16.87
2019-04-20T20:38:48.084Z,16.80
2019-04-20T20:41:18.375Z,17.80
2019-04-20T20:43:53.942Z,18.17
2019-04-20T20:46:19.453Z,18.27
2019-04-20T20:49:03.423Z,17.93
2019-04-20T20:51:34.623Z,16.43
2019-04-20T20:53:50.949Z,17.63
2019-04-20T20:56:15.032Z,16.17
2019-04-20T20:58:49.727Z,16.80
2019-04-20T21:01:15.714Z,18.00
2019-04-20T21:03:40.329Z,18.47
2019-04-20T21:06:03.528Z,16.93
2019-04-20T21:08:31.438Z,19.63
2019-04-20T21:11:00.151Z,20.07
2019-04-20T21:13:33.283Z,19.23
2019-04-20T21:16:02.547Z,20.33
2019-04-20T21:18:43.493Z,19.27
2019-04-20T21:21:11.440Z,16.97
2019-04-20T21:23:37.026Z,16.33
2019-04-20T21:26:07.055Z,17.17
2019-04-20T21:28:36.317Z,15.73
2019-04-20T21:31:11.617Z,14.57
2019-04-20T21:33:37.782Z,14.63
2019-04-20T21:36:03.349Z,14.93
2019-04-20T21:38:35.897Z,13.77
2019-04-20T21:41:07.476Z,13.43
2019-04-20T21:43:33.844Z,13.30
2019-04-20T21:46:03.220Z,13.67
2019-04-20T21:48:48.943Z,14.20
2019-04-20T21:51:13.366Z,15.50
2019-04-20T21:53:30.500Z,14.77
2019-04-20T21:55:55.336Z,14.80
2019-04-20T21:58:27.993Z,15.50
2019-04-20T22:01:10.825Z,14.47
2019-04-20T22:03:27.566Z,14.70
2019-04-20T22:06:06.809Z,14.13
2019-04-20T22:08:34.672Z,14.97
2019-04-20T22:11:03.850Z,14.40
2019-04-20T22:13:38.041Z,14.90
2019-04-20T22:16:07.310Z,14.67
2019-04-20T22:18:47.377Z,15.00
2019-04-20T22:21:14.172Z,15.70
2019-04-20T22:23:50.341Z,15.37
2019-04-20T22:26:12.035Z,15.83
2019-04-20T22:28:29.890Z,16.10
2019-04-20T22:30:57.982Z,16.10
2019-04-20T22:33:33.617Z,16.20
2019-04-20T22:36:02.192Z,17.00
2019-04-20T22:38:58.124Z,17.00
2019-04-20T22:41:25.768Z,17.20
2019-04-20T22:43:54.646Z,17.30
2019-04-20T22:46:25.812Z,17.30
2019-04-20T22:49:06.946Z,17.13
2019-04-20T22:51:37.102Z,18.27
2019-04-20T22:54:10.974Z,17.90
2019-04-20T22:56:35.685Z,17.33
2019-04-20T22:58:57.535Z,18.47
2019-04-20T23:01:27.555Z,18.23
2019-04-20T23:03:46.834Z,19.37
2019-04-20T23:06:14.590Z,20.63
2019-04-20T23:08:42.510Z,20.27
2019-04-20T23:11:20.334Z,19.37
2019-04-20T23:13:41.865Z,18.67
2019-04-20T23:16:09.269Z,17.90
2019-04-20T23:18:37.981Z,19.93
2019-04-20T23:21:10.423Z,18.50
2019-04-20T23:23:35.554Z,18.23
2019-04-20T23:26:03.333Z,17.80
2019-04-20T23:28:31.320Z,16.03
2019-04-20T23:31:03.860Z,14.77
2019-04-20T23:33:27.862Z,16.23
2019-04-20T23:35:58.249Z,16.87
2019-04-20T23:38:24.838Z,16.77
2019-04-20T23:40:52.292Z,16.60
2019-04-20T23:43:28.211Z,15.57
2019-04-20T23:46:25.786Z,14.83
2019-04-20T23:49:18.861Z,14.97
2019-04-20T23:52:00.690Z,15.97
2019-04-20T23:54:13.831Z,14.57
2019-04-20T23:56:37.509Z,15.67
2019-04-20T23:59:06.377Z,13.97
